createdAt,value
2022-11-29T00:04:36.371Z,66.39
2022-11-29T00:09:44.160Z,66.45
2022-11-29T00:16:17.957Z,66.67
2022-11-29T00:47:06.625Z,66.58
2022-11-29T01:25:14.806Z,66.52
2022-11-29T02:41:04.167Z,66.70
2022-11-29T02:59:02.162Z,66.44
2022-11-29T03:07:16.306Z,66.83
2022-11-29T04:43:15.027Z,68.59
2022-11-29T05:09:59.855Z,69.26
2022-11-29T05:32:48.556Z,68.67
2022-11-29T05:38:02.797Z,68.78
2022-11-29T06:01:52.566Z,68.69
2022-11-29T06:17:39.164Z,69.67
2022-11-29T06:29:04.278Z,69.23
2022-11-29T06:35:16.127Z,68.11
2022-11-29T06:47:30.127Z,68.45
2022-11-29T06:52:54.726Z,68.83
2022-11-29T07:07:55.767Z,68.46
2022-11-29T07:12:59.280Z,68.31
2022-11-29T07:18:34.001Z,68.37
2022-11-29T07:23:53.777Z,68.20
2022-11-29T07:29:06.217Z,68.10
2022-11-29T07:34:20.180Z,68.62
2022-11-29T07:39:41.507Z,68.10
2022-11-29T07:45:07.268Z,67.88
2022-11-29T07:50:14.382Z,67.96
2022-11-29T07:55:20.259Z,68.13
2022-11-29T08:00:23.591Z,68.84
2022-11-29T08:05:27.261Z,68.14
2022-11-29T08:10:30.966Z,68.19
2022-11-29T08:15:34.365Z,68.23
2022-11-29T08:20:40.451Z,68.17
2022-11-29T08:26:01.548Z,68.03
2022-11-29T08:47:08.978Z,67.68
2022-11-29T09:11:58.384Z,68.31
2022-11-29T09:17:19.330Z,68.55
2022-11-29T09:23:47.627Z,68.39
2022-11-29T09:29:31.546Z,68.62
2022-11-29T09:40:57.889Z,68.14
2022-11-29T09:47:01.198Z,67.93
2022-11-29T09:52:50.257Z,67.84
2022-11-29T10:04:23.237Z,67.41
2022-11-29T10:16:58.301Z,67.94
2022-11-29T10:25:44.191Z,67.84
2022-11-29T10:31:44.459Z,67.22
2022-11-29T10:37:00.244Z,67.63
2022-11-29T10:42:43.563Z,67.64
2022-11-29T10:48:07.100Z,67.74
2022-11-29T11:00:01.637Z,68.19
2022-11-29T11:11:54.429Z,67.24
2022-11-29T11:17:37.198Z,67.51
2022-11-29T11:23:01.072Z,68.19
2022-11-29T11:28:14.259Z,67.31
2022-11-29T11:33:31.037Z,67.32
2022-11-29T11:46:58.842Z,67.62
2022-11-29T11:52:06.205Z,68.45
2022-11-29T11:57:20.383Z,67.85
2022-11-29T12:02:47.026Z,67.48
2022-11-29T12:08:11.774Z,67.47
2022-11-29T12:13:24.319Z,67.34
2022-11-29T12:18:49.400Z,67.61
2022-11-29T12:29:52.860Z,68.51
2022-11-29T12:35:35.555Z,69.34
2022-11-29T12:47:38.389Z,67.44
2022-11-29T12:53:11.971Z,67.83
2022-11-29T12:59:41.981Z,68.01
2022-11-29T13:05:02.023Z,69.01
2022-11-29T13:10:56.132Z,67.76
2022-11-29T13:16:31.020Z,67.50
2022-11-29T13:21:46.992Z,67.49
2022-11-29T13:26:53.132Z,67.43
2022-11-29T13:32:17.685Z,67.41
2022-11-29T13:37:30.411Z,67.46
2022-11-29T13:42:47.114Z,67.96
2022-11-29T13:47:54.662Z,68.56
2022-11-29T13:53:20.799Z,69.10
2022-11-29T13:58:55.187Z,68.27
2022-11-29T14:04:35.853Z,68.26
2022-11-29T14:10:04.333Z,68.14
2022-11-29T14:15:25.572Z,68.15
2022-11-29T14:20:38.496Z,68.35
2022-11-29T14:26:07.307Z,68.39
2022-11-29T14:31:12.078Z,68.88
2022-11-29T14:36:18.966Z,69.21
2022-11-29T14:42:42.869Z,68.94
2022-11-29T14:47:30.116Z,68.60
2022-11-29T14:52:39.141Z,68.66
2022-11-29T15:04:12.230Z,68.84
2022-11-29T15:10:50.848Z,69.15
2022-11-29T15:16:11.419Z,69.55
2022-11-29T15:21:49.614Z,69.29
2022-11-29T15:27:00.467Z,69.26
2022-11-29T15:32:06.211Z,69.09
2022-11-29T15:37:37.375Z,69.38
2022-11-29T15:42:48.683Z,69.52
2022-11-29T15:47:52.716Z,69.64
2022-11-29T15:53:01.900Z,72.00
2022-11-29T15:58:08.765Z,72.99
2022-11-29T16:03:21.101Z,70.49
2022-11-29T16:08:26.723Z,69.79
2022-11-29T16:13:38.122Z,69.62
2022-11-29T16:18:43.181Z,69.74
2022-11-29T16:23:46.921Z,69.75
2022-11-29T16:28:53.404Z,70.32
2022-11-29T16:34:09.545Z,71.09
2022-11-29T16:39:23.848Z,71.03
2022-11-29T16:44:42.054Z,70.12
2022-11-29T16:49:45.760Z,70.14
2022-11-29T16:54:49.625Z,70.25
2022-11-29T16:59:52.884Z,69.91
2022-11-29T17:04:57.175Z,70.10
2022-11-29T17:10:00.353Z,70.38
2022-11-29T17:15:04.583Z,70.52
2022-11-29T17:20:08.323Z,69.51
2022-11-29T17:25:11.425Z,69.68
2022-11-29T17:30:15.731Z,69.61
2022-11-29T17:35:21.172Z,69.75
2022-11-29T17:40:26.310Z,69.91
2022-11-29T17:45:40.572Z,69.70
2022-11-29T17:50:45.403Z,69.92
2022-11-29T18:01:37.115Z,70.07
2022-11-29T18:06:41.469Z,69.41
2022-11-29T18:11:49.352Z,69.55
2022-11-29T18:16:53.378Z,69.85
2022-11-29T18:21:56.407Z,69.67
2022-11-29T18:26:59.367Z,70.09
2022-11-29T18:32:03.956Z,70.18
2022-11-29T18:37:23.986Z,70.28
2022-11-29T18:42:37.283Z,70.23
2022-11-29T18:47:40.457Z,70.73
2022-11-29T18:52:43.483Z,70.20
2022-11-29T18:57:53.586Z,69.78
2022-11-29T19:02:58.105Z,69.77
2022-11-29T19:08:01.885Z,69.93
2022-11-29T19:13:05.974Z,70.17
2022-11-29T19:18:10.160Z,69.95
2022-11-29T19:23:14.846Z,69.97
2022-11-29T19:28:21.804Z,70.03
2022-11-29T19:39:07.982Z,70.19
2022-11-29T19:44:29.942Z,70.35
2022-11-29T19:49:36.567Z,70.12
2022-11-29T19:54:40.452Z,70.14
2022-11-29T19:59:45.158Z,71.63
2022-11-29T20:05:09.926Z,70.60
2022-11-29T20:10:52.539Z,69.73
2022-11-29T20:16:08.998Z,69.65
2022-11-29T20:21:17.283Z,69.62
2022-11-29T20:26:21.227Z,69.64
2022-11-29T20:31:24.661Z,69.71
2022-11-29T20:37:07.701Z,69.74
2022-11-29T20:42:19.543Z,69.77
2022-11-29T20:47:54.639Z,69.44
2022-11-29T20:53:48.656Z,69.49
2022-11-29T20:58:51.740Z,69.59
2022-11-29T21:03:54.837Z,69.46
2022-11-29T21:08:57.885Z,69.53
2022-11-29T21:14:04.139Z,69.30
2022-11-29T21:19:12.249Z,69.29
2022-11-29T21:24:39.100Z,69.42
2022-11-29T21:29:42.584Z,69.31
2022-11-29T21:34:45.743Z,69.36
2022-11-29T21:39:51.704Z,69.21
2022-11-29T21:44:54.750Z,69.25
2022-11-29T21:49:57.882Z,69.31
2022-11-29T21:55:00.912Z,68.92
2022-11-29T22:00:05.580Z,68.98
2022-11-29T22:05:09.771Z,68.90
2022-11-29T22:10:13.620Z,68.88
2022-11-29T22:15:21.521Z,69.01
2022-11-29T22:20:28.784Z,68.80
2022-11-29T22:25:31.795Z,68.66
2022-11-29T22:30:36.022Z,68.67
2022-11-29T22:35:44.051Z,68.88
2022-11-29T22:40:47.037Z,68.49
2022-11-29T22:45:50.099Z,68.46
2022-11-29T22:50:53.164Z,68.59
2022-11-29T22:56:00.709Z,68.55
2022-11-29T23:01:14.242Z,68.59
2022-11-29T23:06:28.958Z,68.43
2022-11-29T23:11:32.484Z,68.43
2022-11-29T23:16:36.640Z,68.08
2022-11-29T23:21:41.095Z,68.45
2022-11-29T23:33:22.938Z,68.57
2022-11-29T23:38:35.940Z,68.78
2022-11-29T23:49:14.962Z,68.51
2022-11-29T23:54:25.744Z,68.39
2022-11-29T23:59:29.206Z,68.51
